Saint Michael, ND (58370)

7:01 AM CDT on June 24, 2017 (GMT -0500)
Ackerman's Acres | | Change Station

Elev 1444 ft 48.10 °N, 98.82 °W | Updated 28 seconds ago

Mostly Cloudy
Mostly Cloudy
47.7 °F
Feels Like 43 °F
N
11.0
Wind Variable Wind from West

Today
High -- | Low -- °F
--% Chance of Precip.
Yesterday
High -- | Low -- °F
Precip. -- in
Pressure 30.10 in
Visibility 10.0 miles
Clouds Few 3000 ft
Mostly Cloudy 4200 ft
Mostly Cloudy 5000 ft
Windchill 43 °F
Dew Point 44 °F
Humidity 88%
Rainfall 0.00 in
Snow Depth Not available.
5:36 AM 9:39 PM
New Moon, 0% visible
METAR KDVL 241156Z AUTO 30011KT 10SM FEW030 BKN042 BKN050 08/06 A3004 RMK AO2 SLP193 T00830061 10111 20078 53011
Pressure 30.10 in
Visibility 10.0 miles
Clouds Few 3000 ft
Mostly Cloudy 4200 ft
Mostly Cloudy 5000 ft
Windchill 43 °F
Dew Point 44 °F
Humidity 88%
Rainfall 0.00 in
Snow Depth Not available.
5:36 AM 9:39 PM
New Moon, 0% visible
METAR KDVL 241156Z AUTO 30011KT 10SM FEW030 BKN042 BKN050 08/06 A3004 RMK AO2 SLP193 T00830061 10111 20078 53011

Get Severe Weather Alerts

Thanks for signing up!

Be on the lookout for a verification email in your inbox.

You'll start receiving the daily forecast at 6 AM.

×

10-Day Weather Forecast

Almanac

Astronomy

Jun. 24, 2017 Rise Set
Actual Time
Civil Twilight
Nautical Twilight
Astronomical Twilight
Moon
Length of Visible Light
Length of Day
Tomorrow will be .
, % of the Moon is Illuminated

Today's Extremes

State Highs State Lows

Community

WunderPhotos

Category 6

Welcome to Category 6. This is the collective home for Weather Underground's featured writeups by Dr. Jeff Masters (right), Bob Henson (left), Chris Burt, and other regular contributors.

Nearby

Air Quality

  Air Quality AQ Index Pollutant
Not available.

Snow Depth

Station Depth Elevation

Earthquake Activity

City Distance Mag. Time & Date
Minimum magnitude displayed is 2.5.

Coastal Water Temperatures

Place Temperature

Stations

Nearby Weather Stations

Station Location Temp. Windchill Dew Point Humidity Wind Precip. Elev Updated Type
                   

Watches & Warnings

There are currently no watches in effect.